Sproul, Pennsylvania
Current Conditions -  °F | °C
As of 6:53 PM on Wednesday 22 Oct 2014 (Local Time) from KAOO Reporting Station
Overcast Overcast  
Wind Chill: 44°   Ceiling: 1900
Heat Index: 48°   Visibility: 10mi
Dew Point: 41°   Wind: 9mph
Humidity: 77%   Direction: 330°NNW
Pressure: 30.07"   Gusts: 18mph
Location:  40.27°N, 78.46°W
Report Text: KAOO 222253Z AUTO 33008G16KT 300V030 10SM BKN019 OVC028 09/05 A3007 RMK AO2 SLP188 T00890050
Loading
Personal Weather Stations






























Interactive Weather Map
Tropical Storm Tracking
New forecast layout! Learn more

10-Day Weather Forecast

Advertisements
Track Severe Weather on mobile